USCGC Polar Star — NBTM — position and weather

sailwx.info

Track history (hours):
 
Tides and Currents Weather Stations Pressure Air Temp Water Temp Dewpoint Dewpoint Depression Visibility Wind Speed Wind Dir Waves Ship Positions

Oceanographic research ship USCGC Polar Star (USA)

Detailed information on ship capabilities available from University of Delaware's Ocean Information Center and ARCUS's ALIAS (Arctic Logistics Information and Support) project.

Last reported at 2018-Nov-28 19:13 UTC. Time now 2018-Dec-12 23:01 UTC.
Position N 46°37' W 125°19'.
Warning: this ship's position is 14 days out of date.

Type: Law enforcement. MMSI: 367255000.

Date/timePositionNaut miles runAvg speedWind from/ knotsBaromVisibWave heightAir tempDewpointWater temp
2018-Nov-28 19:13N 46°37' W 125°19'0 0.4
2018-Nov-28 18:57N 46°37' W 125°19'614.8
2018-Nov-28 18:31N 46°41' W 125°11'713.8
2018-Nov-28 18:00N 46°46' W 125°03'611.5
2018-Nov-28 17:30N 46°51' W 125°04'611.4
2018-Nov-28 16:57N 46°58' W 125°04'611.3
2018-Nov-28 16:22N 47°04' W 125°05'411.2
2018-Nov-28 16:00N 47°08' W 125°04'6311.2
2018-Nov-28 10:25N 48°11' W 125°07'510.9
2018-Nov-28 09:59N 48°16' W 125°07'711.2
2018-Nov-28 09:22N 48°23' W 125°08'410.6
2018-Nov-28 09:01N 48°26' W 125°06'611.0
2018-Nov-28 08:29N 48°31' W 125°00'510.7
2018-Nov-28 08:00N 48°31' W 124°53'510.6
2018-Nov-28 07:29N 48°31' W 124°44'611.5
2018-Nov-28 07:00N 48°28' W 124°37'713.4
2018-Nov-28 06:31N 48°26' W 124°28'917.2
2018-Nov-28 06:01N 48°23' W 124°16'917.8
2018-Nov-28 05:29N 48°19' W 124°02'918.4
2018-Nov-28 05:00N 48°17' W 123°49'1517.7
2018-Nov-28 04:08N 48°14' W 123°27'217.0
2018-Nov-28 04:00N 48°14' W 123°24'917.3
2018-Nov-28 03:27N 48°13' W 123°09'2714.5
2018-Nov-28 01:35N 47°59' W 122°35'215.4
2018-Nov-28 01:29N 47°58' W 122°33'815.7
2018-Nov-28 01:00N 47°51' W 122°28'815.2
2018-Nov-28 00:30N 47°43' W 122°26'611.0
2018-Nov-28 00:00N 47°38' W 122°26'2 4.8
2018-Nov-27 23:30N 47°37' W 122°23'1 2.0
2018-Nov-27 23:00N 47°37' W 122°21'0 0.3
2018-Nov-27 22:30N 47°37' W 122°22'0 0.3
2018-Nov-27 22:00N 47°37' W 122°22'1 1.1
2018-Nov-27 21:30N 47°36' W 122°22'1 0.2
2018-Nov-27 16:31N 47°35' W 122°21'0 0.0
2018-Nov-27 16:29N 47°35' W 122°21'0 0.0
2018-Nov-27 15:59N 47°35' W 122°21'0 0.0
2018-Nov-27 15:28N 47°35' W 122°21'0 0.0
2018-Nov-27 14:58N 47°35' W 122°21'0 0.0
2018-Nov-27 14:28N 47°35' W 122°21'0 0.0
2018-Nov-27 13:58N 47°35' W 122°21'0 0.0
2018-Nov-27 13:25N 47°35' W 122°21'0 0.0
2018-Nov-27 12:50N 47°35' W 122°21'0 0.0
2018-Nov-27 12:14N 47°35' W 122°21'0 0.0
2018-Nov-27 11:38N 47°35' W 122°21'0 0.0
2018-Nov-27 10:26N 47°35' W 122°21'0 0.0
2018-Nov-27 09:50N 47°35' W 122°21'0 0.0
2018-Nov-27 09:29N 47°35' W 122°21'0 0.0
2018-Nov-27 08:10N 47°35' W 122°21'0 0.0
2018-Nov-27 07:58N 47°35' W 122°21'0 0.0
2018-Nov-27 07:28N 47°35' W 122°21'0 0.0
2018-Nov-27 06:49N 47°35' W 122°21'0 0.0
2018-Nov-27 06:25N 47°35' W 122°21'0 0.0
2018-Nov-27 06:00N 47°35' W 122°21'0 0.0
2018-Nov-27 05:30N 47°35' W 122°21'0 0.0
2018-Nov-27 05:00N 47°35' W 122°21'0 0.0
2018-Nov-27 04:30N 47°35' W 122°21'0 0.0
2018-Nov-27 04:00N 47°35' W 122°21'0 0.0
2018-Nov-27 03:30N 47°35' W 122°21'0 0.0
2018-Nov-27 02:30N 47°35' W 122°21'0 0.0
2018-Nov-27 02:00N 47°35' W 122°21'0 0.0
2018-Nov-27 01:29N 47°35' W 122°21'0 0.0
2018-Nov-27 00:59N 47°35' W 122°21'0 0.0
2018-Nov-27 00:29N 47°35' W 122°21'  
Track history (hours):
 
Tides and Currents Weather Stations Pressure Air Temp Water Temp Dewpoint Dewpoint Depression Visibility Wind Speed Wind Dir Waves Ship Positions

Oceanographic research ship USCGC Polar Star (USA)

Detailed information on ship capabilities available from University of Delaware's Ocean Information Center and ARCUS's ALIAS (Arctic Logistics Information and Support) project.

Last reported at 2018-Nov-28 19:13 UTC. Time now 2018-Dec-12 23:01 UTC.
Position N 46°37' W 125°19'.
Warning: this ship's position is 14 days out of date.

Type: Law enforcement. MMSI: 367255000.

Date/timePositionNaut miles runAvg speedWind from/ knotsBaromVisibWave heightAir tempDewpointWater temp
2018-Nov-28 19:13N 46°37' W 125°19'0 0.4
2018-Nov-28 18:57N 46°37' W 125°19'614.8
2018-Nov-28 18:31N 46°41' W 125°11'713.8
2018-Nov-28 18:00N 46°46' W 125°03'611.5
2018-Nov-28 17:30N 46°51' W 125°04'611.4
2018-Nov-28 16:57N 46°58' W 125°04'611.3
2018-Nov-28 16:22N 47°04' W 125°05'411.2
2018-Nov-28 16:00N 47°08' W 125°04'6311.2
2018-Nov-28 10:25N 48°11' W 125°07'510.9
2018-Nov-28 09:59N 48°16' W 125°07'711.2
2018-Nov-28 09:22N 48°23' W 125°08'410.6
2018-Nov-28 09:01N 48°26' W 125°06'611.0
2018-Nov-28 08:29N 48°31' W 125°00'510.7
2018-Nov-28 08:00N 48°31' W 124°53'510.6
2018-Nov-28 07:29N 48°31' W 124°44'611.5
2018-Nov-28 07:00N 48°28' W 124°37'713.4
2018-Nov-28 06:31N 48°26' W 124°28'917.2
2018-Nov-28 06:01N 48°23' W 124°16'917.8
2018-Nov-28 05:29N 48°19' W 124°02'918.4
2018-Nov-28 05:00N 48°17' W 123°49'1517.7
2018-Nov-28 04:08N 48°14' W 123°27'217.0
2018-Nov-28 04:00N 48°14' W 123°24'917.3
2018-Nov-28 03:27N 48°13' W 123°09'2714.5
2018-Nov-28 01:35N 47°59' W 122°35'215.4
2018-Nov-28 01:29N 47°58' W 122°33'815.7
2018-Nov-28 01:00N 47°51' W 122°28'815.2
2018-Nov-28 00:30N 47°43' W 122°26'611.0
2018-Nov-28 00:00N 47°38' W 122°26'2 4.8
2018-Nov-27 23:30N 47°37' W 122°23'1 2.0
2018-Nov-27 23:00N 47°37' W 122°21'0 0.3
2018-Nov-27 22:30N 47°37' W 122°22'0 0.3
2018-Nov-27 22:00N 47°37' W 122°22'1 1.1
2018-Nov-27 21:30N 47°36' W 122°22'1 0.2
2018-Nov-27 16:31N 47°35' W 122°21'0 0.0
2018-Nov-27 16:29N 47°35' W 122°21'0 0.0
2018-Nov-27 15:59N 47°35' W 122°21'0 0.0
2018-Nov-27 15:28N 47°35' W 122°21'0 0.0
2018-Nov-27 14:58N 47°35' W 122°21'0 0.0
2018-Nov-27 14:28N 47°35' W 122°21'0 0.0
2018-Nov-27 13:58N 47°35' W 122°21'0 0.0
2018-Nov-27 13:25N 47°35' W 122°21'0 0.0
2018-Nov-27 12:50N 47°35' W 122°21'0 0.0
2018-Nov-27 12:14N 47°35' W 122°21'0 0.0
2018-Nov-27 11:38N 47°35' W 122°21'0 0.0
2018-Nov-27 10:26N 47°35' W 122°21'0 0.0
2018-Nov-27 09:50N 47°35' W 122°21'0 0.0
2018-Nov-27 09:29N 47°35' W 122°21'0 0.0
2018-Nov-27 08:10N 47°35' W 122°21'0 0.0
2018-Nov-27 07:58N 47°35' W 122°21'0 0.0
2018-Nov-27 07:28N 47°35' W 122°21'0 0.0
2018-Nov-27 06:49N 47°35' W 122°21'0 0.0
2018-Nov-27 06:25N 47°35' W 122°21'0 0.0
2018-Nov-27 06:00N 47°35' W 122°21'0 0.0
2018-Nov-27 05:30N 47°35' W 122°21'0 0.0
2018-Nov-27 05:00N 47°35' W 122°21'0 0.0
2018-Nov-27 04:30N 47°35' W 122°21'0 0.0
2018-Nov-27 04:00N 47°35' W 122°21'0 0.0
2018-Nov-27 03:30N 47°35' W 122°21'0 0.0
2018-Nov-27 02:30N 47°35' W 122°21'0 0.0
2018-Nov-27 02:00N 47°35' W 122°21'0 0.0
2018-Nov-27 01:29N 47°35' W 122°21'0 0.0
2018-Nov-27 00:59N 47°35' W 122°21'0 0.0
2018-Nov-27 00:29N 47°35' W 122°21'  

Dump ship's entire track history